עמוד ראשי
תמונות לווין תחזית 10-יוםאקליםתחזית ים סופות טרופיות ברקים שדות תעופהשאלות נפוצות עלון אודות
מזג אוויר : אירופה אפריקה אמריקה הצפונית אמריקה הדרומית אסיה אוסטרליה-אוקיאניה אחרים
שפות איש קשר

שטוטגרט, גרמניה

קו רוחב: 48-41N, קו אורך: 009-13E, גובה: 396מטר


METAR: EDDS 011350Z 25016KT 9999 SCT028CB 05/02 Q1020 RESHSN NOSIG
TAF: EDDS 011100Z 0112/0212 26015G25KT 9999 SCT035 TEMPO 0112/0120 26020G35KT SHRASN BKN020CB TEMPO 0200/0212 RA PROB40 TEMPO 0203/0212 4000 RA BKN008

זמן: 16:23 (14:23 UTC)

תצפית מזג אוויר נוכחית

הדו"ח נערך לפני 33דקות, בשעה 13:50 UTC
רוח 16קשר מכיוון מערב/דרום-מערב
טמפרטורת 5 צלסיוס
לחות 81%
לחץ 1020 hPa
ראות 10 קילומטר או יותר
עננים פזורים בגובה 2800רגל , קומולונימבוס.

שנה יחידות

תחזית

הדו"ח נערך לפני 3 שעות ו 23דקות, בשעה 11:00 UTC
תחזית בתוקף מ 01 ב 12 UTC עד 02 ב 12 UTC
רוח 15קשר מכיוון מערב עם משבים עד 25קשר
ראות 10 קילומטר או יותר
עננים פזורים בגובה 3500רגל
זמנית מ -
01 ב 12 UTC עד 01 ב 20 UTC
רוח 20קשר מכיוון מערב עם משבים עד 35קשר
עננים בינוניים בגובה 2000רגל , קומולונימבוס.
ממטרי גשם, שלג
זמנית מ -
02 ב 00 UTC עד 02 ב 12 UTC
גשם
הסתברות 40% :
זמנית מ -
02 ב 03 UTC עד 02 ב 12 UTC
ראות: 4000מטר
עננים בינוניים בגובה 800רגל
גשם
המידע באתר זה מותנה של תניית פטור
מזג אוויר : אירופה אפריקה אמריקה הצפונית אמריקה הדרומית אסיה אוסטרליה-אוקיאניה אחרים
תמונות לווין תחזית 10-יוםאקליםתחזית ים סופות טרופיות ברקים שדות תעופהשאלות נפוצות שפות איש קשר עלון אודות